sensor_id;sensor_type;location;lat;lon;timestamp;P1;durP1;ratioP1;P2;durP2;ratioP2
20417;SDS011;10368;51.436;6.774;2024-01-16T00:00:58;9.77;;;6.17;;
20417;SDS011;10368;51.436;6.774;2024-01-16T00:03:25;9.67;;;5.33;;
20417;SDS011;10368;51.436;6.774;2024-01-16T00:05:52;10.47;;;5.17;;
20417;SDS011;10368;51.436;6.774;2024-01-16T00:08:18;11.23;;;5.07;;
20417;SDS011;10368;51.436;6.774;2024-01-16T00:10:46;5.10;;;3.40;;
20417;SDS011;10368;51.436;6.774;2024-01-16T00:13:13;9.47;;;5.03;;
20417;SDS011;10368;51.436;6.774;2024-01-16T00:15:40;8.00;;;5.03;;
20417;SDS011;10368;51.436;6.774;2024-01-16T00:18:08;4.20;;;2.60;;
20417;SDS011;10368;51.436;6.774;2024-01-16T00:20:35;9.00;;;5.03;;
20417;SDS011;10368;51.436;6.774;2024-01-16T00:23:02;7.53;;;5.53;;
20417;SDS011;10368;51.436;6.774;2024-01-16T00:25:29;10.60;;;5.33;;
20417;SDS011;10368;51.436;6.774;2024-01-16T00:27:56;9.50;;;5.37;;
20417;SDS011;10368;51.436;6.774;2024-01-16T00:30:23;5.23;;;4.13;;
20417;SDS011;10368;51.436;6.774;2024-01-16T00:32:50;6.50;;;4.87;;
20417;SDS011;10368;51.436;6.774;2024-01-16T00:35:17;12.53;;;5.20;;
20417;SDS011;10368;51.436;6.774;2024-01-16T00:37:44;10.57;;;4.20;;
20417;SDS011;10368;51.436;6.774;2024-01-16T00:40:11;9.40;;;5.37;;
20417;SDS011;10368;51.436;6.774;2024-01-16T00:42:38;7.63;;;4.87;;
20417;SDS011;10368;51.436;6.774;2024-01-16T00:45:05;10.37;;;5.30;;
20417;SDS011;10368;51.436;6.774;2024-01-16T00:47:32;7.37;;;3.70;;
20417;SDS011;10368;51.436;6.774;2024-01-16T00:49:59;7.97;;;4.70;;
20417;SDS011;10368;51.436;6.774;2024-01-16T00:52:29;8.30;;;4.60;;
20417;SDS011;10368;51.436;6.774;2024-01-16T00:54:56;11.80;;;4.80;;
20417;SDS011;10368;51.436;6.774;2024-01-16T00:57:23;8.17;;;4.07;;
20417;SDS011;10368;51.436;6.774;2024-01-16T00:59:49;10.27;;;4.63;;
20417;SDS011;10368;51.436;6.774;2024-01-16T01:02:16;9.67;;;5.17;;
20417;SDS011;10368;51.436;6.774;2024-01-16T01:04:43;14.47;;;4.40;;
20417;SDS011;10368;51.436;6.774;2024-01-16T01:07:12;6.20;;;3.73;;
20417;SDS011;10368;51.436;6.774;2024-01-16T01:09:40;8.63;;;4.77;;
20417;SDS011;10368;51.436;6.774;2024-01-16T01:12:07;5.97;;;4.67;;
20417;SDS011;10368;51.436;6.774;2024-01-16T01:14:34;6.60;;;3.80;;
20417;SDS011;10368;51.436;6.774;2024-01-16T01:17:01;7.47;;;4.10;;
20417;SDS011;10368;51.436;6.774;2024-01-16T01:19:28;8.27;;;4.20;;
20417;SDS011;10368;51.436;6.774;2024-01-16T01:21:55;6.57;;;4.33;;
20417;SDS011;10368;51.436;6.774;2024-01-16T01:24:22;11.83;;;4.73;;
20417;SDS011;10368;51.436;6.774;2024-01-16T01:26:49;10.60;;;3.83;;
20417;SDS011;10368;51.436;6.774;2024-01-16T01:29:16;7.43;;;4.33;;
20417;SDS011;10368;51.436;6.774;2024-01-16T01:31:46;8.40;;;4.30;;
20417;SDS011;10368;51.436;6.774;2024-01-16T01:34:16;8.63;;;4.77;;
20417;SDS011;10368;51.436;6.774;2024-01-16T01:36:43;6.37;;;4.77;;
20417;SDS011;10368;51.436;6.774;2024-01-16T01:39:10;7.47;;;4.73;;
20417;SDS011;10368;51.436;6.774;2024-01-16T01:41:38;10.20;;;5.33;;
20417;SDS011;10368;51.436;6.774;2024-01-16T01:44:06;12.87;;;4.87;;
20417;SDS011;10368;51.436;6.774;2024-01-16T01:46:33;7.17;;;4.77;;
20417;SDS011;10368;51.436;6.774;2024-01-16T01:49:01;10.00;;;4.90;;
20417;SDS011;10368;51.436;6.774;2024-01-16T01:51:30;10.70;;;5.43;;
20417;SDS011;10368;51.436;6.774;2024-01-16T01:53:57;13.73;;;6.17;;
20417;SDS011;10368;51.436;6.774;2024-01-16T01:56:25;12.23;;;5.87;;
20417;SDS011;10368;51.436;6.774;2024-01-16T01:58:54;10.37;;;5.47;;
20417;SDS011;10368;51.436;6.774;2024-01-16T02:01:24;10.97;;;6.00;;
20417;SDS011;10368;51.436;6.774;2024-01-16T02:03:55;11.27;;;6.50;;
20417;SDS011;10368;51.436;6.774;2024-01-16T02:06:22;8.70;;;6.17;;
20417;SDS011;10368;51.436;6.774;2024-01-16T02:08:50;9.83;;;5.73;;
20417;SDS011;10368;51.436;6.774;2024-01-16T02:11:17;18.13;;;5.83;;
20417;SDS011;10368;51.436;6.774;2024-01-16T02:13:45;11.37;;;6.40;;
20417;SDS011;10368;51.436;6.774;2024-01-16T02:16:21;12.57;;;6.50;;
20417;SDS011;10368;51.436;6.774;2024-01-16T02:18:50;15.27;;;6.57;;
20417;SDS011;10368;51.436;6.774;2024-01-16T02:21:22;10.90;;;6.17;;
20417;SDS011;10368;51.436;6.774;2024-01-16T02:23:50;10.97;;;7.40;;
20417;SDS011;10368;51.436;6.774;2024-01-16T02:26:17;13.40;;;7.10;;
20417;SDS011;10368;51.436;6.774;2024-01-16T02:28:45;14.57;;;6.10;;
20417;SDS011;10368;51.436;6.774;2024-01-16T02:31:12;13.63;;;8.27;;
20417;SDS011;10368;51.436;6.774;2024-01-16T02:33:39;11.63;;;7.53;;
20417;SDS011;10368;51.436;6.774;2024-01-16T02:36:06;11.73;;;7.90;;
20417;SDS011;10368;51.436;6.774;2024-01-16T02:38:34;12.17;;;7.20;;
20417;SDS011;10368;51.436;6.774;2024-01-16T02:41:01;11.13;;;7.73;;
20417;SDS011;10368;51.436;6.774;2024-01-16T02:43:28;14.30;;;8.37;;
20417;SDS011;10368;51.436;6.774;2024-01-16T02:45:55;12.90;;;7.37;;
20417;SDS011;10368;51.436;6.774;2024-01-16T02:48:22;15.07;;;8.97;;
20417;SDS011;10368;51.436;6.774;2024-01-16T02:50:49;12.70;;;8.87;;
20417;SDS011;10368;51.436;6.774;2024-01-16T02:53:16;16.30;;;9.60;;
20417;SDS011;10368;51.436;6.774;2024-01-16T02:55:43;13.23;;;7.67;;
20417;SDS011;10368;51.436;6.774;2024-01-16T02:58:10;12.80;;;9.63;;
20417;SDS011;10368;51.436;6.774;2024-01-16T03:00:37;17.53;;;11.03;;
20417;SDS011;10368;51.436;6.774;2024-01-16T03:03:04;16.23;;;10.93;;
20417;SDS011;10368;51.436;6.774;2024-01-16T03:05:31;16.60;;;10.53;;
20417;SDS011;10368;51.436;6.774;2024-01-16T03:07:58;14.33;;;10.07;;
20417;SDS011;10368;51.436;6.774;2024-01-16T03:10:25;17.47;;;10.07;;
20417;SDS011;10368;51.436;6.774;2024-01-16T03:12:52;15.43;;;9.40;;
20417;SDS011;10368;51.436;6.774;2024-01-16T03:15:19;14.87;;;9.87;;
20417;SDS011;10368;51.436;6.774;2024-01-16T03:17:47;15.93;;;10.57;;
20417;SDS011;10368;51.436;6.774;2024-01-16T03:20:14;18.30;;;10.20;;
20417;SDS011;10368;51.436;6.774;2024-01-16T03:22:42;20.13;;;9.97;;
20417;SDS011;10368;51.436;6.774;2024-01-16T03:25:10;13.47;;;10.43;;
20417;SDS011;10368;51.436;6.774;2024-01-16T03:27:38;14.60;;;10.53;;
20417;SDS011;10368;51.436;6.774;2024-01-16T03:30:06;13.47;;;9.07;;
20417;SDS011;10368;51.436;6.774;2024-01-16T03:32:35;14.57;;;9.30;;
20417;SDS011;10368;51.436;6.774;2024-01-16T03:35:03;18.03;;;11.43;;
20417;SDS011;10368;51.436;6.774;2024-01-16T03:37:31;15.30;;;10.03;;
20417;SDS011;10368;51.436;6.774;2024-01-16T03:39:58;16.47;;;10.07;;
20417;SDS011;10368;51.436;6.774;2024-01-16T03:42:25;16.87;;;10.47;;
20417;SDS011;10368;51.436;6.774;2024-01-16T03:44:53;15.93;;;10.30;;
20417;SDS011;10368;51.436;6.774;2024-01-16T03:47:19;15.13;;;10.53;;
20417;SDS011;10368;51.436;6.774;2024-01-16T03:49:46;17.03;;;10.27;;
20417;SDS011;10368;51.436;6.774;2024-01-16T03:52:13;17.90;;;11.03;;
20417;SDS011;10368;51.436;6.774;2024-01-16T03:54:40;18.60;;;11.30;;
20417;SDS011;10368;51.436;6.774;2024-01-16T03:57:07;14.83;;;9.53;;
20417;SDS011;10368;51.436;6.774;2024-01-16T03:59:36;17.50;;;11.00;;
20417;SDS011;10368;51.436;6.774;2024-01-16T04:02:04;22.27;;;11.87;;
20417;SDS011;10368;51.436;6.774;2024-01-16T04:04:31;17.70;;;11.20;;
20417;SDS011;10368;51.436;6.774;2024-01-16T04:06:58;21.53;;;10.77;;
20417;SDS011;10368;51.436;6.774;2024-01-16T04:09:25;15.20;;;10.10;;
20417;SDS011;10368;51.436;6.774;2024-01-16T04:11:52;16.03;;;10.60;;
20417;SDS011;10368;51.436;6.774;2024-01-16T04:14:19;15.10;;;8.87;;
20417;SDS011;10368;51.436;6.774;2024-01-16T04:16:46;16.03;;;10.00;;
20417;SDS011;10368;51.436;6.774;2024-01-16T04:19:14;15.60;;;9.20;;
20417;SDS011;10368;51.436;6.774;2024-01-16T04:21:41;14.47;;;9.07;;
20417;SDS011;10368;51.436;6.774;2024-01-16T04:24:08;15.93;;;10.30;;
20417;SDS011;10368;51.436;6.774;2024-01-16T04:26:35;17.73;;;8.20;;
20417;SDS011;10368;51.436;6.774;2024-01-16T04:29:04;11.50;;;6.37;;
20417;SDS011;10368;51.436;6.774;2024-01-16T04:31:32;15.83;;;7.10;;
20417;SDS011;10368;51.436;6.774;2024-01-16T04:34:05;10.13;;;7.50;;
20417;SDS011;10368;51.436;6.774;2024-01-16T04:36:32;18.37;;;7.33;;
20417;SDS011;10368;51.436;6.774;2024-01-16T04:38:59;11.83;;;6.37;;
20417;SDS011;10368;51.436;6.774;2024-01-16T04:41:26;14.50;;;7.10;;
20417;SDS011;10368;51.436;6.774;2024-01-16T04:43:53;11.43;;;6.17;;
20417;SDS011;10368;51.436;6.774;2024-01-16T04:46:20;11.77;;;6.13;;
20417;SDS011;10368;51.436;6.774;2024-01-16T04:48:47;10.00;;;6.57;;
20417;SDS011;10368;51.436;6.774;2024-01-16T04:51:14;11.67;;;6.10;;
20417;SDS011;10368;51.436;6.774;2024-01-16T04:53:41;9.07;;;4.50;;
20417;SDS011;10368;51.436;6.774;2024-01-16T04:56:08;7.83;;;5.30;;
20417;SDS011;10368;51.436;6.774;2024-01-16T04:58:35;7.97;;;4.80;;
20417;SDS011;10368;51.436;6.774;2024-01-16T05:01:03;8.37;;;4.67;;
20417;SDS011;10368;51.436;6.774;2024-01-16T05:03:30;8.03;;;4.83;;
20417;SDS011;10368;51.436;6.774;2024-01-16T05:05:56;7.87;;;4.83;;
20417;SDS011;10368;51.436;6.774;2024-01-16T05:08:24;9.60;;;4.27;;
20417;SDS011;10368;51.436;6.774;2024-01-16T05:10:51;10.10;;;4.93;;
20417;SDS011;10368;51.436;6.774;2024-01-16T05:13:18;5.67;;;4.40;;
20417;SDS011;10368;51.436;6.774;2024-01-16T05:15:45;10.30;;;4.07;;
20417;SDS011;10368;51.436;6.774;2024-01-16T05:18:12;5.57;;;3.57;;
20417;SDS011;10368;51.436;6.774;2024-01-16T05:20:39;6.13;;;4.43;;
20417;SDS011;10368;51.436;6.774;2024-01-16T05:23:06;7.47;;;4.77;;
20417;SDS011;10368;51.436;6.774;2024-01-16T05:25:33;11.53;;;5.77;;
20417;SDS011;10368;51.436;6.774;2024-01-16T05:28:00;7.63;;;5.67;;
20417;SDS011;10368;51.436;6.774;2024-01-16T05:30:27;10.47;;;5.93;;
20417;SDS011;10368;51.436;6.774;2024-01-16T05:32:54;10.63;;;5.63;;
20417;SDS011;10368;51.436;6.774;2024-01-16T05:35:22;12.77;;;6.67;;
20417;SDS011;10368;51.436;6.774;2024-01-16T05:37:51;10.33;;;6.43;;
20417;SDS011;10368;51.436;6.774;2024-01-16T05:40:18;10.67;;;7.80;;
20417;SDS011;10368;51.436;6.774;2024-01-16T05:42:45;15.27;;;7.30;;
20417;SDS011;10368;51.436;6.774;2024-01-16T05:45:12;17.77;;;8.50;;
20417;SDS011;10368;51.436;6.774;2024-01-16T05:47:40;13.50;;;10.07;;
20417;SDS011;10368;51.436;6.774;2024-01-16T05:50:09;18.90;;;13.87;;
20417;SDS011;10368;51.436;6.774;2024-01-16T05:52:39;16.67;;;11.40;;
20417;SDS011;10368;51.436;6.774;2024-01-16T05:55:10;19.93;;;12.00;;
20417;SDS011;10368;51.436;6.774;2024-01-16T05:57:37;18.57;;;9.73;;
20417;SDS011;10368;51.436;6.774;2024-01-16T06:00:04;22.23;;;13.53;;
20417;SDS011;10368;51.436;6.774;2024-01-16T06:02:32;21.07;;;13.60;;
20417;SDS011;10368;51.436;6.774;2024-01-16T06:04:59;20.33;;;12.27;;
20417;SDS011;10368;51.436;6.774;2024-01-16T06:07:26;16.63;;;10.90;;
20417;SDS011;10368;51.436;6.774;2024-01-16T06:09:53;21.17;;;10.73;;
20417;SDS011;10368;51.436;6.774;2024-01-16T06:12:20;20.20;;;11.17;;
20417;SDS011;10368;51.436;6.774;2024-01-16T06:14:47;12.60;;;9.07;;
20417;SDS011;10368;51.436;6.774;2024-01-16T06:17:14;11.57;;;6.83;;
20417;SDS011;10368;51.436;6.774;2024-01-16T06:19:41;18.93;;;11.80;;
20417;SDS011;10368;51.436;6.774;2024-01-16T06:22:08;21.50;;;11.30;;
20417;SDS011;10368;51.436;6.774;2024-01-16T06:24:35;15.60;;;10.90;;
20417;SDS011;10368;51.436;6.774;2024-01-16T06:27:06;19.60;;;12.30;;
20417;SDS011;10368;51.436;6.774;2024-01-16T06:29:33;18.77;;;10.97;;
20417;SDS011;10368;51.436;6.774;2024-01-16T06:32:01;14.10;;;11.00;;
20417;SDS011;10368;51.436;6.774;2024-01-16T06:34:28;17.40;;;10.50;;
20417;SDS011;10368;51.436;6.774;2024-01-16T06:36:55;20.83;;;10.83;;
20417;SDS011;10368;51.436;6.774;2024-01-16T06:39:22;17.63;;;11.13;;
20417;SDS011;10368;51.436;6.774;2024-01-16T06:41:49;20.57;;;10.90;;
20417;SDS011;10368;51.436;6.774;2024-01-16T06:44:16;17.80;;;10.57;;
20417;SDS011;10368;51.436;6.774;2024-01-16T06:46:44;18.67;;;10.07;;
20417;SDS011;10368;51.436;6.774;2024-01-16T06:49:11;16.53;;;11.00;;
20417;SDS011;10368;51.436;6.774;2024-01-16T06:51:38;14.83;;;10.23;;
20417;SDS011;10368;51.436;6.774;2024-01-16T06:54:05;15.03;;;10.17;;
20417;SDS011;10368;51.436;6.774;2024-01-16T06:56:32;18.07;;;8.57;;
20417;SDS011;10368;51.436;6.774;2024-01-16T06:59:00;13.63;;;8.90;;
20417;SDS011;10368;51.436;6.774;2024-01-16T07:01:27;13.47;;;7.33;;
20417;SDS011;10368;51.436;6.774;2024-01-16T07:03:54;12.60;;;8.20;;
20417;SDS011;10368;51.436;6.774;2024-01-16T07:06:21;16.20;;;8.43;;
20417;SDS011;10368;51.436;6.774;2024-01-16T07:08:48;15.77;;;6.67;;
20417;SDS011;10368;51.436;6.774;2024-01-16T07:11:15;12.77;;;7.13;;
20417;SDS011;10368;51.436;6.774;2024-01-16T07:13:43;15.60;;;7.17;;
20417;SDS011;10368;51.436;6.774;2024-01-16T07:16:10;21.67;;;6.90;;
20417;SDS011;10368;51.436;6.774;2024-01-16T07:18:38;19.83;;;5.90;;
20417;SDS011;10368;51.436;6.774;2024-01-16T07:21:18;8.93;;;6.80;;
20417;SDS011;10368;51.436;6.774;2024-01-16T07:23:47;11.13;;;4.43;;
20417;SDS011;10368;51.436;6.774;2024-01-16T07:26:14;12.80;;;5.77;;
20417;SDS011;10368;51.436;6.774;2024-01-16T07:28:43;12.37;;;5.87;;
20417;SDS011;10368;51.436;6.774;2024-01-16T07:31:10;13.70;;;6.50;;
20417;SDS011;10368;51.436;6.774;2024-01-16T07:33:38;13.47;;;6.17;;
20417;SDS011;10368;51.436;6.774;2024-01-16T07:36:05;10.17;;;5.67;;
20417;SDS011;10368;51.436;6.774;2024-01-16T07:38:34;8.33;;;5.00;;
20417;SDS011;10368;51.436;6.774;2024-01-16T07:41:03;13.57;;;5.87;;
20417;SDS011;10368;51.436;6.774;2024-01-16T07:43:30;10.07;;;4.40;;
20417;SDS011;10368;51.436;6.774;2024-01-16T07:45:58;8.43;;;4.80;;
20417;SDS011;10368;51.436;6.774;2024-01-16T07:48:25;8.30;;;4.13;;
20417;SDS011;10368;51.436;6.774;2024-01-16T07:50:52;16.73;;;5.80;;
20417;SDS011;10368;51.436;6.774;2024-01-16T07:53:19;10.50;;;5.13;;
20417;SDS011;10368;51.436;6.774;2024-01-16T07:55:46;14.60;;;5.30;;
20417;SDS011;10368;51.436;6.774;2024-01-16T07:58:13;6.23;;;3.87;;
20417;SDS011;10368;51.436;6.774;2024-01-16T08:00:41;8.97;;;4.77;;
20417;SDS011;10368;51.436;6.774;2024-01-16T08:03:08;9.33;;;3.90;;
20417;SDS011;10368;51.436;6.774;2024-01-16T08:05:38;11.40;;;4.70;;
20417;SDS011;10368;51.436;6.774;2024-01-16T08:08:09;8.10;;;3.40;;
20417;SDS011;10368;51.436;6.774;2024-01-16T08:10:36;7.93;;;4.37;;
20417;SDS011;10368;51.436;6.774;2024-01-16T08:13:04;8.50;;;4.03;;
20417;SDS011;10368;51.436;6.774;2024-01-16T08:15:31;8.90;;;4.20;;
20417;SDS011;10368;51.436;6.774;2024-01-16T08:17:58;10.20;;;4.10;;
20417;SDS011;10368;51.436;6.774;2024-01-16T08:20:25;10.83;;;4.70;;
20417;SDS011;10368;51.436;6.774;2024-01-16T08:22:52;13.37;;;4.60;;
20417;SDS011;10368;51.436;6.774;2024-01-16T08:25:19;9.57;;;2.97;;
20417;SDS011;10368;51.436;6.774;2024-01-16T08:27:46;5.67;;;2.83;;
20417;SDS011;10368;51.436;6.774;2024-01-16T08:30:13;9.53;;;3.47;;
20417;SDS011;10368;51.436;6.774;2024-01-16T08:32:41;10.03;;;3.27;;
20417;SDS011;10368;51.436;6.774;2024-01-16T08:35:08;16.00;;;4.00;;
20417;SDS011;10368;51.436;6.774;2024-01-16T08:37:35;7.93;;;3.90;;
20417;SDS011;10368;51.436;6.774;2024-01-16T08:40:02;9.63;;;3.27;;
20417;SDS011;10368;51.436;6.774;2024-01-16T08:42:31;12.70;;;3.33;;
20417;SDS011;10368;51.436;6.774;2024-01-16T08:44:58;5.97;;;3.50;;
20417;SDS011;10368;51.436;6.774;2024-01-16T08:47:25;5.40;;;3.87;;
20417;SDS011;10368;51.436;6.774;2024-01-16T08:49:53;10.13;;;4.23;;
20417;SDS011;10368;51.436;6.774;2024-01-16T08:52:19;6.37;;;3.70;;
20417;SDS011;10368;51.436;6.774;2024-01-16T08:54:47;8.50;;;3.60;;
20417;SDS011;10368;51.436;6.774;2024-01-16T08:57:14;6.87;;;3.40;;
20417;SDS011;10368;51.436;6.774;2024-01-16T08:59:43;8.77;;;3.77;;
20417;SDS011;10368;51.436;6.774;2024-01-16T09:02:11;13.53;;;4.43;;
20417;SDS011;10368;51.436;6.774;2024-01-16T09:04:38;5.83;;;3.40;;
20417;SDS011;10368;51.436;6.774;2024-01-16T09:07:06;9.47;;;4.00;;
20417;SDS011;10368;51.436;6.774;2024-01-16T09:09:33;8.90;;;4.90;;
20417;SDS011;10368;51.436;6.774;2024-01-16T09:12:00;10.23;;;3.67;;
20417;SDS011;10368;51.436;6.774;2024-01-16T09:14:27;9.17;;;3.87;;
20417;SDS011;10368;51.436;6.774;2024-01-16T09:16:55;9.33;;;3.40;;
20417;SDS011;10368;51.436;6.774;2024-01-16T09:19:22;13.47;;;3.50;;
20417;SDS011;10368;51.436;6.774;2024-01-16T09:21:49;13.87;;;4.20;;
20417;SDS011;10368;51.436;6.774;2024-01-16T09:24:16;8.30;;;3.83;;
20417;SDS011;10368;51.436;6.774;2024-01-16T09:26:43;8.77;;;4.13;;
20417;SDS011;10368;51.436;6.774;2024-01-16T09:29:10;4.70;;;2.70;;
20417;SDS011;10368;51.436;6.774;2024-01-16T09:31:37;6.87;;;3.23;;
20417;SDS011;10368;51.436;6.774;2024-01-16T09:34:04;7.47;;;3.43;;
20417;SDS011;10368;51.436;6.774;2024-01-16T09:36:35;7.63;;;3.77;;
20417;SDS011;10368;51.436;6.774;2024-01-16T09:39:07;8.37;;;3.70;;
20417;SDS011;10368;51.436;6.774;2024-01-16T09:41:35;4.97;;;2.83;;
20417;SDS011;10368;51.436;6.774;2024-01-16T09:44:01;10.10;;;4.63;;
20417;SDS011;10368;51.436;6.774;2024-01-16T09:46:29;11.93;;;4.20;;
20417;SDS011;10368;51.436;6.774;2024-01-16T09:48:59;16.33;;;4.77;;
20417;SDS011;10368;51.436;6.774;2024-01-16T09:51:29;6.97;;;4.20;;
20417;SDS011;10368;51.436;6.774;2024-01-16T09:53:56;13.40;;;4.40;;
20417;SDS011;10368;51.436;6.774;2024-01-16T09:56:23;9.30;;;4.20;;
20417;SDS011;10368;51.436;6.774;2024-01-16T09:58:54;16.77;;;4.40;;
20417;SDS011;10368;51.436;6.774;2024-01-16T10:01:24;6.67;;;4.10;;
20417;SDS011;10368;51.436;6.774;2024-01-16T10:03:54;12.23;;;6.00;;
20417;SDS011;10368;51.436;6.774;2024-01-16T10:06:21;6.87;;;4.07;;
20417;SDS011;10368;51.436;6.774;2024-01-16T10:08:50;6.07;;;3.60;;
20417;SDS011;10368;51.436;6.774;2024-01-16T10:11:17;9.13;;;3.73;;
20417;SDS011;10368;51.436;6.774;2024-01-16T10:13:44;8.60;;;3.97;;
20417;SDS011;10368;51.436;6.774;2024-01-16T10:16:12;8.93;;;4.43;;
20417;SDS011;10368;51.436;6.774;2024-01-16T10:18:39;11.53;;;4.40;;
20417;SDS011;10368;51.436;6.774;2024-01-16T10:21:19;11.03;;;4.23;;
20417;SDS011;10368;51.436;6.774;2024-01-16T10:23:49;5.83;;;3.03;;
20417;SDS011;10368;51.436;6.774;2024-01-16T10:26:16;5.43;;;3.03;;
20417;SDS011;10368;51.436;6.774;2024-01-16T10:28:45;14.17;;;5.10;;
20417;SDS011;10368;51.436;6.774;2024-01-16T10:31:12;6.17;;;4.03;;
20417;SDS011;10368;51.436;6.774;2024-01-16T10:33:43;11.37;;;4.20;;
20417;SDS011;10368;51.436;6.774;2024-01-16T10:36:11;8.63;;;3.90;;
20417;SDS011;10368;51.436;6.774;2024-01-16T10:38:43;11.67;;;4.27;;
20417;SDS011;10368;51.436;6.774;2024-01-16T10:41:12;12.37;;;4.10;;
20417;SDS011;10368;51.436;6.774;2024-01-16T10:43:40;9.23;;;3.57;;
20417;SDS011;10368;51.436;6.774;2024-01-16T10:48:35;7.87;;;2.83;;
20417;SDS011;10368;51.436;6.774;2024-01-16T10:51:03;8.47;;;4.20;;
20417;SDS011;10368;51.436;6.774;2024-01-16T10:53:33;10.73;;;4.77;;
20417;SDS011;10368;51.436;6.774;2024-01-16T10:56:01;8.07;;;3.73;;
20417;SDS011;10368;51.436;6.774;2024-01-16T10:58:29;6.37;;;4.27;;
20417;SDS011;10368;51.436;6.774;2024-01-16T11:01:01;9.23;;;4.40;;
20417;SDS011;10368;51.436;6.774;2024-01-16T11:03:35;10.50;;;3.93;;
20417;SDS011;10368;51.436;6.774;2024-01-16T11:06:08;10.87;;;4.67;;
20417;SDS011;10368;51.436;6.774;2024-01-16T11:08:36;12.03;;;4.83;;
20417;SDS011;10368;51.436;6.774;2024-01-16T11:11:04;7.00;;;4.27;;
20417;SDS011;10368;51.436;6.774;2024-01-16T11:13:32;5.00;;;3.07;;
20417;SDS011;10368;51.436;6.774;2024-01-16T11:16:04;9.27;;;4.53;;
20417;SDS011;10368;51.436;6.774;2024-01-16T11:18:31;9.67;;;4.37;;
20417;SDS011;10368;51.436;6.774;2024-01-16T11:21:02;4.83;;;3.57;;
20417;SDS011;10368;51.436;6.774;2024-01-16T11:23:37;8.10;;;3.50;;
20417;SDS011;10368;51.436;6.774;2024-01-16T11:28:53;7.03;;;4.07;;
20417;SDS011;10368;51.436;6.774;2024-01-16T11:31:32;11.37;;;3.83;;
20417;SDS011;10368;51.436;6.774;2024-01-16T11:34:01;8.60;;;4.70;;
20417;SDS011;10368;51.436;6.774;2024-01-16T11:36:49;6.43;;;4.07;;
20417;SDS011;10368;51.436;6.774;2024-01-16T11:39:22;5.80;;;4.10;;
20417;SDS011;10368;51.436;6.774;2024-01-16T11:41:57;12.90;;;5.13;;
20417;SDS011;10368;51.436;6.774;2024-01-16T11:47:21;10.27;;;4.10;;
20417;SDS011;10368;51.436;6.774;2024-01-16T11:49:50;11.33;;;4.53;;
20417;SDS011;10368;51.436;6.774;2024-01-16T12:00:57;6.50;;;4.10;;
20417;SDS011;10368;51.436;6.774;2024-01-16T12:03:24;25.10;;;9.53;;
20417;SDS011;10368;51.436;6.774;2024-01-16T12:06:00;61.53;;;15.87;;
20417;SDS011;10368;51.436;6.774;2024-01-16T12:08:30;16.17;;;7.40;;
20417;SDS011;10368;51.436;6.774;2024-01-16T12:10:57;9.07;;;3.83;;
20417;SDS011;10368;51.436;6.774;2024-01-16T12:13:25;10.73;;;4.97;;
20417;SDS011;10368;51.436;6.774;2024-01-16T12:15:59;10.17;;;5.30;;
20417;SDS011;10368;51.436;6.774;2024-01-16T12:18:27;7.90;;;4.30;;
20417;SDS011;10368;51.436;6.774;2024-01-16T12:21:08;9.50;;;5.03;;
20417;SDS011;10368;51.436;6.774;2024-01-16T12:23:37;12.17;;;5.00;;
20417;SDS011;10368;51.436;6.774;2024-01-16T12:26:21;13.83;;;4.80;;
20417;SDS011;10368;51.436;6.774;2024-01-16T12:28:51;4.73;;;3.47;;
20417;SDS011;10368;51.436;6.774;2024-01-16T12:31:26;8.57;;;5.07;;
20417;SDS011;10368;51.436;6.774;2024-01-16T12:34:04;8.37;;;4.37;;
20417;SDS011;10368;51.436;6.774;2024-01-16T12:36:34;9.90;;;5.20;;
20417;SDS011;10368;51.436;6.774;2024-01-16T12:39:03;6.30;;;4.90;;
20417;SDS011;10368;51.436;6.774;2024-01-16T12:41:32;6.00;;;4.10;;
20417;SDS011;10368;51.436;6.774;2024-01-16T12:44:09;10.67;;;5.20;;
20417;SDS011;10368;51.436;6.774;2024-01-16T12:46:43;8.17;;;4.37;;
20417;SDS011;10368;51.436;6.774;2024-01-16T12:49:22;8.83;;;4.80;;
20417;SDS011;10368;51.436;6.774;2024-01-16T12:51:50;10.40;;;5.20;;
20417;SDS011;10368;51.436;6.774;2024-01-16T12:54:18;8.87;;;4.53;;
20417;SDS011;10368;51.436;6.774;2024-01-16T12:56:57;8.07;;;5.10;;
20417;SDS011;10368;51.436;6.774;2024-01-16T12:59:27;14.33;;;6.33;;
20417;SDS011;10368;51.436;6.774;2024-01-16T13:01:57;11.33;;;4.20;;
20417;SDS011;10368;51.436;6.774;2024-01-16T13:04:25;11.13;;;4.67;;
20417;SDS011;10368;51.436;6.774;2024-01-16T13:07:00;8.37;;;4.70;;
20417;SDS011;10368;51.436;6.774;2024-01-16T13:09:31;10.23;;;5.03;;
20417;SDS011;10368;51.436;6.774;2024-01-16T13:11:59;10.50;;;5.43;;
20417;SDS011;10368;51.436;6.774;2024-01-16T13:14:27;11.70;;;4.83;;
20417;SDS011;10368;51.436;6.774;2024-01-16T13:16:54;13.47;;;4.83;;
20417;SDS011;10368;51.436;6.774;2024-01-16T13:19:22;10.97;;;5.13;;
20417;SDS011;10368;51.436;6.774;2024-01-16T13:21:50;10.43;;;4.67;;
20417;SDS011;10368;51.436;6.774;2024-01-16T13:24:17;11.00;;;5.10;;
20417;SDS011;10368;51.436;6.774;2024-01-16T13:26:48;13.10;;;5.97;;
20417;SDS011;10368;51.436;6.774;2024-01-16T13:29:16;9.40;;;5.53;;
20417;SDS011;10368;51.436;6.774;2024-01-16T13:31:42;9.40;;;5.53;;
20417;SDS011;10368;51.436;6.774;2024-01-16T13:34:10;10.10;;;5.73;;
20417;SDS011;10368;51.436;6.774;2024-01-16T13:36:38;8.30;;;5.27;;
20417;SDS011;10368;51.436;6.774;2024-01-16T13:39:25;9.73;;;5.03;;
20417;SDS011;10368;51.436;6.774;2024-01-16T13:41:53;8.20;;;5.00;;
20417;SDS011;10368;51.436;6.774;2024-01-16T13:44:21;13.60;;;5.23;;
20417;SDS011;10368;51.436;6.774;2024-01-16T13:46:48;9.10;;;5.30;;
20417;SDS011;10368;51.436;6.774;2024-01-16T13:49:31;9.53;;;4.70;;
20417;SDS011;10368;51.436;6.774;2024-01-16T13:52:00;8.53;;;4.33;;
20417;SDS011;10368;51.436;6.774;2024-01-16T13:54:27;6.63;;;4.97;;
20417;SDS011;10368;51.436;6.774;2024-01-16T13:56:55;8.60;;;5.57;;
20417;SDS011;10368;51.436;6.774;2024-01-16T13:59:33;13.17;;;5.23;;
20417;SDS011;10368;51.436;6.774;2024-01-16T14:02:01;12.43;;;4.90;;
20417;SDS011;10368;51.436;6.774;2024-01-16T14:04:29;7.97;;;4.73;;
20417;SDS011;10368;51.436;6.774;2024-01-16T14:06:56;9.87;;;4.77;;
20417;SDS011;10368;51.436;6.774;2024-01-16T14:09:38;8.57;;;5.70;;
20417;SDS011;10368;51.436;6.774;2024-01-16T14:12:10;8.77;;;4.80;;
20417;SDS011;10368;51.436;6.774;2024-01-16T14:14:38;6.90;;;3.90;;
20417;SDS011;10368;51.436;6.774;2024-01-16T14:17:08;10.80;;;5.17;;
20417;SDS011;10368;51.436;6.774;2024-01-16T14:19:35;12.53;;;4.53;;
20417;SDS011;10368;51.436;6.774;2024-01-16T14:22:02;10.07;;;4.43;;
20417;SDS011;10368;51.436;6.774;2024-01-16T14:24:30;6.03;;;4.17;;
20417;SDS011;10368;51.436;6.774;2024-01-16T14:26:57;9.10;;;4.10;;
20417;SDS011;10368;51.436;6.774;2024-01-16T14:29:24;9.67;;;4.97;;
20417;SDS011;10368;51.436;6.774;2024-01-16T14:31:53;8.57;;;4.70;;
20417;SDS011;10368;51.436;6.774;2024-01-16T14:34:22;8.10;;;4.87;;
20417;SDS011;10368;51.436;6.774;2024-01-16T14:36:50;13.70;;;5.17;;
20417;SDS011;10368;51.436;6.774;2024-01-16T14:39:17;9.67;;;6.20;;
20417;SDS011;10368;51.436;6.774;2024-01-16T14:41:51;11.77;;;5.80;;
20417;SDS011;10368;51.436;6.774;2024-01-16T14:44:18;10.37;;;4.87;;
20417;SDS011;10368;51.436;6.774;2024-01-16T14:46:45;11.10;;;4.53;;
20417;SDS011;10368;51.436;6.774;2024-01-16T14:49:16;8.23;;;4.80;;
20417;SDS011;10368;51.436;6.774;2024-01-16T14:51:43;9.30;;;5.30;;
20417;SDS011;10368;51.436;6.774;2024-01-16T14:54:10;9.40;;;4.87;;
20417;SDS011;10368;51.436;6.774;2024-01-16T14:56:37;13.40;;;5.10;;
20417;SDS011;10368;51.436;6.774;2024-01-16T14:59:05;9.50;;;4.33;;
20417;SDS011;10368;51.436;6.774;2024-01-16T15:01:32;9.13;;;5.13;;